^^
Saratoga-Weather Station Historical Data
Daily Summary for October 30, 2020 Units:  Metric    English   Both
Daily Weekly Monthly Yearly Custom
  High: Low: Average:
Temperature: 14.5 °C 12.7 °C 13.2 °C
Dew Point: 12.4 °C 11.6 °C 11.9 °C
Humidity: 94% 86% 92%
Wind Speed: 19.5km/h 0km/h 3.4km/h
Wind Gust: 19.3km/h - -
Wind- - WSW
Pressure: 1023.4 hPa 1020.0 hPa -
Precipitation: 0.8 mm    
Historical Graphs
 
 
Tabular Data for October 30, 2020
Time Temperature Dew Point Pressure Wind Wind Speed Wind Gust Humidity Rainfall Rate (Hourly) solar
00:01 12.8 °C 11.7 °C 1020.3 hPa NNW 4.7 km/h 9.7 km/h 93% 0.0 mm 0 W/m2
00:06 12.8 °C 11.7 °C 1020.3 hPa NNW 4.7 km/h 8 km/h 93% 0.0 mm 0 W/m2
00:11 12.8 °C 11.7 °C 1020.3 hPa NNE 3.2 km/h 8 km/h 93% 0.0 mm 0 W/m2
00:16 12.8 °C 11.7 °C 1020.3 hPa NW 14.3 km/h 14.5 km/h 93% 0.0 mm 0 W/m2
00:21 12.8 °C 11.7 °C 1020.3 hPa NW 4.7 km/h 8 km/h 93% 0.0 mm 0 W/m2
00:26 12.8 °C 11.7 °C 1020.3 hPa North 1.4 km/h 8 km/h 93% 0.0 mm 0 W/m2
00:31 12.8 °C 11.7 °C 1020.3 hPa NW 6.4 km/h 11.3 km/h 93% 0.0 mm 0 W/m2
00:36 12.9 °C 11.8 °C 1020.3 hPa WNW 3.2 km/h 8 km/h 93% 0.0 mm 0 W/m2
00:41 12.9 °C 11.8 °C 1020.3 hPa South 4.7 km/h 11.3 km/h 93% 0.0 mm 0 W/m2
00:46 12.9 °C 11.8 °C 1020.3 hPa East 1.4 km/h 6.4 km/h 93% 0.0 mm 0 W/m2
00:51 12.8 °C 11.7 °C 1020.3 hPa West 1.4 km/h 17.7 km/h 93% 0.0 mm 0 W/m2
00:56 12.8 °C 11.7 °C 1020.3 hPa WNW 4.7 km/h 12.9 km/h 93% 0.0 mm 0 W/m2
01:02 12.8 °C 11.7 °C 1020.3 hPa ESE 6.4 km/h 17.7 km/h 93% 0.0 mm 0 W/m2
01:07 12.8 °C 11.9 °C 1020.3 hPa NW 6.4 km/h 8 km/h 94% 0.0 mm 0 W/m2
01:12 12.8 °C 11.9 °C 1020.0 hPa NW 1.4 km/h 11.3 km/h 94% 0.2 mm 0 W/m2
01:17 12.8 °C 11.9 °C 1020.0 hPa NNE 1.4 km/h 6.4 km/h 94% 0.2 mm 0 W/m2
01:22 12.8 °C 11.9 °C 1020.0 hPa SSW 3.2 km/h 6.4 km/h 94% 0.2 mm 0 W/m2
01:27 12.8 °C 11.9 °C 1020.0 hPa NW 4.7 km/h 14.5 km/h 94% 0.2 mm 0 W/m2
01:32 12.9 °C 12 °C 1020.0 hPa Calm   6.4 km/h 94% 0.2 mm 0 W/m2
01:37 12.9 °C 12 °C 1020.0 hPa North 3.2 km/h 14.5 km/h 94% 0.2 mm 0 W/m2
01:42 12.9 °C 12 °C 1020.0 hPa NNE 3.2 km/h 6.4 km/h 94% 0.2 mm 0 W/m2
01:47 12.9 °C 12 °C 1020.0 hPa North 3.2 km/h 4.8 km/h 94% 0.2 mm 0 W/m2
01:52 12.9 °C 12 °C 1020.0 hPa NW 7.9 km/h 11.3 km/h 94% 0.2 mm 0 W/m2
01:57 12.9 °C 12 °C 1020.0 hPa NNW 3.2 km/h 6.4 km/h 94% 0.2 mm 0 W/m2
02:02 13 °C 12.1 °C 1020.0 hPa WNW 3.2 km/h 6.4 km/h 94% 0.2 mm 0 W/m2
02:07 13.1 °C 12.2 °C 1020.0 hPa Calm   8 km/h 94% 0.2 mm 0 W/m2
02:12 13.1 °C 12.2 °C 1020.0 hPa WNW 4.7 km/h 6.4 km/h 94% 0.0 mm 0 W/m2
02:17 13.1 °C 12 °C 1020.0 hPa SSW 1.4 km/h 3.2 km/h 93% 0.0 mm 0 W/m2
02:22 13.2 °C 12.1 °C 1020.0 hPa West 9.7 km/h 9.7 km/h 93% 0.0 mm 0 W/m2
02:27 13.2 °C 12.1 °C 1020.0 hPa West 9.7 km/h 14.5 km/h 93% 0.0 mm 0 W/m2
02:32 13.3 °C 12.2 °C 1020.3 hPa West 6.4 km/h 16.1 km/h 93% 0.0 mm 0 W/m2
02:37 13.3 °C 12.2 °C 1020.0 hPa WNW 3.2 km/h 6.4 km/h 93% 0.0 mm 0 W/m2
02:42 13.3 °C 12 °C 1020.3 hPa WSW 3.2 km/h 12.9 km/h 92% 0.0 mm 0 W/m2
02:47 13.3 °C 12 °C 1020.3 hPa West 4.7 km/h 9.7 km/h 92% 0.0 mm 0 W/m2
02:52 13.3 °C 12 °C 1020.3 hPa West 11.1 km/h 12.9 km/h 92% 0.0 mm 0 W/m2
02:57 13.3 °C 12 °C 1020.3 hPa West 4.7 km/h 14.5 km/h 92% 0.0 mm 0 W/m2
03:02 13.3 °C 12 °C 1020.3 hPa North 3.2 km/h 16.1 km/h 92% 0.0 mm 0 W/m2
03:07 13.3 °C 12 °C 1020.3 hPa Calm   3.2 km/h 92% 0.0 mm 0 W/m2
03:12 13.3 °C 12 °C 1020.3 hPa NW 1.4 km/h 16.1 km/h 92% 0.0 mm 0 W/m2
03:17 13.3 °C 12 °C 1020.7 hPa North 1.4 km/h 8 km/h 92% 0.0 mm 0 W/m2
03:22 13.3 °C 12 °C 1020.3 hPa NNW 9.7 km/h 17.7 km/h 92% 0.0 mm 0 W/m2
03:27 13.3 °C 12 °C 1020.3 hPa NNE 1.4 km/h 6.4 km/h 92% 0.0 mm 0 W/m2
03:32 13.3 °C 12 °C 1020.3 hPa WSW 19.5 km/h 19.3 km/h 92% 0.0 mm 0 W/m2
03:37 13.3 °C 12 °C 1020.3 hPa West 14.3 km/h 14.5 km/h 92% 0.0 mm 0 W/m2
03:42 13.3 °C 12 °C 1020.3 hPa WNW 6.4 km/h 6.4 km/h 92% 0.0 mm 0 W/m2
03:47 13.3 °C 12 °C 1020.3 hPa East 4.7 km/h 4.8 km/h 92% 0.0 mm 0 W/m2
03:52 13.3 °C 11.9 °C 1020.3 hPa WNW 1.4 km/h 4.8 km/h 91% 0.0 mm 0 W/m2
03:57 13.3 °C 11.9 °C 1020.3 hPa WSW 3.2 km/h 6.4 km/h 91% 0.0 mm 0 W/m2
04:02 13.3 °C 11.9 °C 1020.3 hPa West 3.2 km/h 6.4 km/h 91% 0.0 mm 0 W/m2
04:07 13.3 °C 11.9 °C 1020.7 hPa West 4.7 km/h 9.7 km/h 91% 0.0 mm 0 W/m2
04:12 13.3 °C 11.9 °C 1020.7 hPa WSW 1.4 km/h 6.4 km/h 91% 0.0 mm 0 W/m2
04:17 13.3 °C 11.9 °C 1020.7 hPa North 4.7 km/h 11.3 km/h 91% 0.0 mm 0 W/m2
04:22 13.3 °C 11.9 °C 1020.7 hPa West 3.2 km/h 11.3 km/h 91% 0.0 mm 0 W/m2
04:27 13.3 °C 11.9 °C 1020.7 hPa West 1.4 km/h 9.7 km/h 91% 0.0 mm 0 W/m2
04:32 13.3 °C 11.9 °C 1020.7 hPa WSW 1.4 km/h 11.3 km/h 91% 0.0 mm 0 W/m2
04:37 13.3 °C 11.9 °C 1020.7 hPa NW 1.4 km/h 3.2 km/h 91% 0.0 mm 0 W/m2
04:42 13.3 °C 11.9 °C 1020.7 hPa Calm   4.8 km/h 91% 0.0 mm 0 W/m2
04:47 13.3 °C 12 °C 1020.7 hPa WNW 7.9 km/h 8 km/h 92% 0.0 mm 0 W/m2
04:52 13.3 °C 11.9 °C 1021.0 hPa SSW 3.2 km/h 12.9 km/h 91% 0.0 mm 0 W/m2
04:57 13.3 °C 11.9 °C 1021.0 hPa NNW 6.4 km/h 6.4 km/h 91% 0.0 mm 0 W/m2
05:02 13.3 °C 11.9 °C 1021.0 hPa West 6.4 km/h 12.9 km/h 91% 0.0 mm 0 W/m2
05:07 13.3 °C 11.9 °C 1020.7 hPa WSW 1.4 km/h 4.8 km/h 91% 0.0 mm 0 W/m2
05:12 13.3 °C 11.9 °C 1020.7 hPa WSW 7.9 km/h 14.5 km/h 91% 0.0 mm 0 W/m2
05:17 13.3 °C 11.9 °C 1020.7 hPa NW 1.4 km/h 11.3 km/h 91% 0.0 mm 0 W/m2
05:22 13.2 °C 11.8 °C 1020.7 hPa Calm   3.2 km/h 91% 0.0 mm 0 W/m2
05:27 13.2 °C 11.8 °C 1021.0 hPa WNW 1.4 km/h 4.8 km/h 91% 0.0 mm 0 W/m2
05:32 13.1 °C 11.7 °C 1021.0 hPa WSW 1.4 km/h 4.8 km/h 91% 0.0 mm 0 W/m2
05:37 13.1 °C 11.8 °C 1021.0 hPa WSW 3.2 km/h 6.4 km/h 92% 0.0 mm 0 W/m2
05:42 13.2 °C 11.9 °C 1021.0 hPa North 6.4 km/h 11.3 km/h 92% 0.0 mm 0 W/m2
05:47 13.2 °C 11.9 °C 1021.0 hPa West 3.2 km/h 8 km/h 92% 0.0 mm 0 W/m2
05:52 13.1 °C 11.8 °C 1021.3 hPa Calm   4.8 km/h 92% 0.0 mm 0 W/m2
05:58 13 °C 11.7 °C 1021.3 hPa WNW 3.2 km/h 4.8 km/h 92% 0.0 mm 0 W/m2
06:03 12.9 °C 11.8 °C 1021.3 hPa NW 3.2 km/h 4.8 km/h 93% 0.2 mm 0 W/m2
06:08 12.8 °C 11.7 °C 1021.3 hPa NNW 3.2 km/h 6.4 km/h 93% 0.2 mm 0 W/m2
06:13 12.7 °C 11.6 °C 1021.0 hPa North 1.4 km/h 4.8 km/h 93% 0.5 mm 0 W/m2
06:18 12.7 °C 11.8 °C 1021.3 hPa WNW 3.2 km/h 4.8 km/h 94% 0.5 mm 0 W/m2
06:23 12.7 °C 11.8 °C 1021.0 hPa West 4.7 km/h 9.7 km/h 94% 0.5 mm 0 W/m2
06:28 12.7 °C 11.8 °C 1021.0 hPa Calm   6.4 km/h 94% 0.5 mm 0 W/m2
06:33 12.7 °C 11.8 °C 1021.0 hPa WNW 1.4 km/h 4.8 km/h 94% 0.5 mm 0 W/m2
06:38 12.7 °C 11.8 °C 1021.3 hPa WNW 11.1 km/h 16.1 km/h 94% 0.5 mm 0 W/m2
06:43 12.7 °C 11.8 °C 1021.3 hPa NW 3.2 km/h 6.4 km/h 94% 0.5 mm 0 W/m2
06:48 12.7 °C 11.8 °C 1021.0 hPa West 4.7 km/h 16.1 km/h 94% 0.5 mm 0 W/m2
06:53 12.7 °C 11.8 °C 1021.0 hPa East 1.4 km/h 4.8 km/h 94% 0.5 mm 0 W/m2
06:58 12.7 °C 11.8 °C 1021.3 hPa NW 9.7 km/h 12.9 km/h 94% 0.5 mm 0 W/m2
07:03 12.7 °C 11.8 °C 1021.3 hPa NNE 3.2 km/h 4.8 km/h 94% 0.5 mm 0 W/m2
07:08 12.7 °C 11.8 °C 1021.3 hPa SE 12.9 km/h 12.9 km/h 94% 0.5 mm 0 W/m2
07:13 12.7 °C 11.8 °C 1021.3 hPa East 1.4 km/h 3.2 km/h 94% 0.2 mm 0 W/m2
07:18 12.7 °C 11.8 °C 1021.0 hPa WSW 1.4 km/h 6.4 km/h 94% 0.2 mm 0 W/m2
07:23 12.7 °C 11.8 °C 1021.3 hPa West 4.7 km/h 12.9 km/h 94% 0.2 mm 0 W/m2
07:28 12.7 °C 11.6 °C 1021.3 hPa NW 4.7 km/h 12.9 km/h 93% 0.2 mm 5 W/m2
07:33 12.7 °C 11.6 °C 1021.3 hPa SW 4.7 km/h 9.7 km/h 93% 0.0 mm 5 W/m2
07:38 12.7 °C 11.6 °C 1021.3 hPa North 3.2 km/h 6.4 km/h 93% 0.0 mm 7 W/m2
07:43 12.7 °C 11.6 °C 1021.3 hPa West 3.2 km/h 9.7 km/h 93% 0.0 mm 7 W/m2
07:48 12.8 °C 11.7 °C 1021.3 hPa NW 6.4 km/h 6.4 km/h 93% 0.0 mm 9 W/m2
07:53 12.8 °C 11.7 °C 1021.3 hPa South 4.7 km/h 4.8 km/h 93% 0.0 mm 9 W/m2
07:58 12.8 °C 11.7 °C 1021.7 hPa NW 1.4 km/h 11.3 km/h 93% 0.0 mm 14 W/m2
08:03 12.8 °C 11.7 °C 1021.7 hPa Calm   3.2 km/h 93% 0.0 mm 16 W/m2
08:08 12.8 °C 11.7 °C 1021.7 hPa SW 1.4 km/h 8 km/h 93% 0.0 mm 25 W/m2
08:13 12.8 °C 11.7 °C 1022.0 hPa WSW 11.1 km/h 17.7 km/h 93% 0.0 mm 21 W/m2
08:18 12.9 °C 11.8 °C 1022.0 hPa NW 1.4 km/h 4.8 km/h 93% 0.0 mm 21 W/m2
08:23 12.9 °C 11.8 °C 1022.0 hPa West 1.4 km/h 17.7 km/h 93% 0.0 mm 19 W/m2
08:28 12.9 °C 11.8 °C 1022.0 hPa NW 4.7 km/h 12.9 km/h 93% 0.0 mm 9 W/m2
08:33 12.9 °C 11.6 °C 1022.0 hPa South 3.2 km/h 6.4 km/h 92% 0.0 mm 12 W/m2
08:38 12.9 °C 11.6 °C 1022.0 hPa Calm   12.9 km/h 92% 0.0 mm 25 W/m2
08:43 12.9 °C 11.6 °C 1022.0 hPa Calm   4.8 km/h 92% 0.0 mm 46 W/m2
08:48 12.9 °C 11.6 °C 1022.0 hPa NW 1.4 km/h 19.3 km/h 92% 0.0 mm 40 W/m2
08:53 12.9 °C 11.8 °C 1022.4 hPa Calm   4.8 km/h 93% 0.0 mm 19 W/m2
08:58 12.9 °C 11.8 °C 1022.4 hPa WNW 1.4 km/h 16.1 km/h 93% 0.0 mm 39 W/m2
09:03 12.8 °C 11.7 °C 1022.4 hPa Calm   6.4 km/h 93% 0.0 mm 37 W/m2
09:08 12.8 °C 11.7 °C 1022.4 hPa NW 3.2 km/h 12.9 km/h 93% 0.0 mm 26 W/m2
09:13 12.8 °C 11.7 °C 1022.4 hPa Calm   4.8 km/h 93% 0.0 mm 32 W/m2
09:18 12.8 °C 11.7 °C 1022.4 hPa WNW 1.4 km/h 4.8 km/h 93% 0.0 mm 25 W/m2
09:23 12.8 °C 11.7 °C 1022.4 hPa NW 1.4 km/h 3.2 km/h 93% 0.0 mm 49 W/m2
09:28 12.8 °C 11.7 °C 1022.4 hPa WNW 1.4 km/h 9.7 km/h 93% 0.0 mm 56 W/m2
09:33 12.9 °C 11.8 °C 1022.4 hPa ENE 6.4 km/h 8 km/h 93% 0.0 mm 60 W/m2
09:38 12.9 °C 11.8 °C 1022.4 hPa Calm   3.2 km/h 93% 0.0 mm 60 W/m2
09:43 12.9 °C 11.8 °C 1022.7 hPa WNW 3.2 km/h 11.3 km/h 93% 0.0 mm 65 W/m2
09:48 13 °C 11.9 °C 1022.7 hPa WNW 3.2 km/h 9.7 km/h 93% 0.0 mm 86 W/m2
09:53 13.1 °C 11.8 °C 1022.4 hPa WNW 1.4 km/h 8 km/h 92% 0.0 mm 86 W/m2
09:58 13.2 °C 11.9 °C 1022.7 hPa WNW 1.4 km/h 6.4 km/h 92% 0.0 mm 95 W/m2
10:03 13.2 °C 11.9 °C 1022.7 hPa NW 3.2 km/h 4.8 km/h 92% 0.0 mm 91 W/m2
10:08 13.2 °C 11.9 °C 1022.7 hPa WNW 3.2 km/h 8 km/h 92% 0.0 mm 114 W/m2
10:13 13.3 °C 12 °C 1022.7 hPa Calm   3.2 km/h 92% 0.0 mm 81 W/m2
10:18 13.3 °C 12 °C 1022.7 hPa Calm   11.3 km/h 92% 0.0 mm 54 W/m2
10:23 13.4 °C 12 °C 1023.0 hPa North 1.4 km/h 4.8 km/h 91% 0.0 mm 62 W/m2
10:28 13.4 °C 12 °C 1023.0 hPa Calm   6.4 km/h 91% 0.0 mm 63 W/m2
10:33 13.4 °C 12 °C 1023.0 hPa Calm   3.2 km/h 91% 0.0 mm 33 W/m2
10:38 13.4 °C 12 °C 1023.0 hPa Calm   3.2 km/h 91% 0.0 mm 60 W/m2
10:43 13.4 °C 12 °C 1023.0 hPa Calm   1.6 km/h 91% 0.0 mm 72 W/m2
10:48 13.4 °C 12 °C 1023.0 hPa NW 3.2 km/h 11.3 km/h 91% 0.0 mm 113 W/m2
10:53 13.4 °C 12 °C 1023.0 hPa WNW 4.7 km/h 11.3 km/h 91% 0.0 mm 56 W/m2
10:59 13.5 °C 11.9 °C 1023.0 hPa SE 6.4 km/h 12.9 km/h 90% 0.0 mm 83 W/m2
11:04 13.6 °C 12 °C 1023.0 hPa NW 4.7 km/h 9.7 km/h 90% 0.0 mm 104 W/m2
11:09 13.6 °C 12 °C 1023.0 hPa WNW 4.7 km/h 12.9 km/h 90% 0.0 mm 86 W/m2
11:14 13.5 °C 12.1 °C 1023.0 hPa West 3.2 km/h 6.4 km/h 91% 0.0 mm 153 W/m2
11:19 13.5 °C 12.1 °C 1023.0 hPa WNW 3.2 km/h 4.8 km/h 91% 0.0 mm 91 W/m2
11:24 13.5 °C 12.1 °C 1023.4 hPa West 3.2 km/h 14.5 km/h 91% 0.0 mm 165 W/m2
11:29 13.5 °C 12.1 °C 1023.0 hPa NNW 3.2 km/h 3.2 km/h 91% 0.0 mm 155 W/m2
11:34 13.6 °C 12.3 °C 1023.0 hPa WSW 4.7 km/h 12.9 km/h 92% 0.0 mm 162 W/m2
11:39 13.6 °C 12.2 °C 1023.0 hPa North 3.2 km/h 11.3 km/h 91% 0.0 mm 163 W/m2
11:44 13.6 °C 12.2 °C 1023.0 hPa NW 1.4 km/h 9.7 km/h 91% 0.0 mm 130 W/m2
11:49 13.7 °C 12.3 °C 1023.0 hPa WNW 1.4 km/h 9.7 km/h 91% 0.0 mm 130 W/m2
11:54 13.8 °C 12.4 °C 1023.0 hPa SW 1.4 km/h 12.9 km/h 91% 0.0 mm 188 W/m2
11:59 13.8 °C 12.2 °C 1023.0 hPa NW 1.4 km/h 6.4 km/h 90% 0.0 mm 113 W/m2
12:04 13.9 °C 12.3 °C 1023.4 hPa NNW 3.2 km/h 12.9 km/h 90% 0.0 mm 84 W/m2
12:09 13.9 °C 12.1 °C 1023.0 hPa West 1.4 km/h 4.8 km/h 89% 0.0 mm 86 W/m2
12:14 13.9 °C 12.1 °C 1023.4 hPa West 3.2 km/h 11.3 km/h 89% 0.0 mm 88 W/m2
12:19 13.9 °C 12.1 °C 1023.0 hPa West 3.2 km/h 4.8 km/h 89% 0.0 mm 171 W/m2
12:24 13.9 °C 12.1 °C 1023.4 hPa West 4.7 km/h 4.8 km/h 89% 0.0 mm 109 W/m2
12:29 13.9 °C 12.1 °C 1023.0 hPa WNW 3.2 km/h 6.4 km/h 89% 0.0 mm 169 W/m2
12:34 13.9 °C 12.3 °C 1023.0 hPa NW 3.2 km/h 4.8 km/h 90% 0.0 mm 69 W/m2
12:39 13.9 °C 12.1 °C 1023.0 hPa NW 1.4 km/h 4.8 km/h 89% 0.0 mm 81 W/m2
12:44 13.9 °C 12.1 °C 1023.0 hPa West 3.2 km/h 9.7 km/h 89% 0.0 mm 76 W/m2
12:49 13.8 °C 12 °C 1023.0 hPa WNW 6.4 km/h 17.7 km/h 89% 0.0 mm 74 W/m2
12:54 13.8 °C 12 °C 1023.0 hPa NNW 1.4 km/h 3.2 km/h 89% 0.0 mm 118 W/m2
12:59 13.7 °C 12.1 °C 1023.0 hPa NW 1.4 km/h 17.7 km/h 90% 0.0 mm 113 W/m2
13:04 13.8 °C 12.2 °C 1023.4 hPa WSW 11.1 km/h 16.1 km/h 90% 0.0 mm 155 W/m2
13:09 13.8 °C 12 °C 1023.4 hPa WNW 3.2 km/h 14.5 km/h 89% 0.0 mm 127 W/m2
13:14 13.9 °C 12.1 °C 1023.0 hPa NW 4.7 km/h 16.1 km/h 89% 0.0 mm 127 W/m2
13:19 14 °C 12 °C 1023.0 hPa Calm   8 km/h 88% 0.0 mm 139 W/m2
13:24 14.1 °C 12.1 °C 1023.0 hPa WNW 4.7 km/h 12.9 km/h 88% 0.0 mm 142 W/m2
13:29 14.2 °C 12.2 °C 1023.0 hPa South 1.4 km/h 11.3 km/h 88% 0.0 mm 183 W/m2
13:34 14.3 °C 12.3 °C 1023.0 hPa Calm   12.9 km/h 88% 0.0 mm 135 W/m2
13:39 14.4 °C 12.3 °C 1023.0 hPa West 3.2 km/h 16.1 km/h 87% 0.0 mm 95 W/m2
13:44 14.4 °C 12.1 °C 1023.0 hPa West 1.4 km/h 6.4 km/h 86% 0.0 mm 114 W/m2
13:49 14.4 °C 12.1 °C 1023.0 hPa WNW 7.9 km/h 9.7 km/h 86% 0.0 mm 120 W/m2
13:54 14.4 °C 12.1 °C 1023.0 hPa Calm   6.4 km/h 86% 0.0 mm 121 W/m2
13:59 14.4 °C 12.1 °C 1023.0 hPa West 1.4 km/h 9.7 km/h 86% 0.0 mm 111 W/m2
14:04 14.4 °C 12.1 °C 1023.0 hPa South 1.4 km/h 6.4 km/h 86% 0.0 mm 111 W/m2
14:09 14.4 °C 12.1 °C 1023.0 hPa NNW 1.4 km/h 6.4 km/h 86% 0.0 mm 109 W/m2
14:14 14.4 °C 12.3 °C 1023.0 hPa WNW 4.7 km/h 6.4 km/h 87% 0.0 mm 107 W/m2
14:19 14.4 °C 12.1 °C 1023.0 hPa SSW 1.4 km/h 8 km/h 86% 0.0 mm 118 W/m2
14:24 14.5 °C 12.4 °C 1023.0 hPa Calm   1.6 km/h 87% 0.0 mm 156 W/m2
Juneau County Weather
Compliments of Weather Underground - 2 mb